Time;durP1;ratioP1;P1;durP2;ratioP2;P2;SDS_P1;SDS_P2;PMS_P1;PMS_P2;Temp;Humidity;BMP_temperature;BMP_pressure;BME280_temperature;BME280_humidity;BME280_pressure;Samples;Min_cycle;Max_cycle;Signal;HPM_P1;HPM_P2
2021/12/02 00:01:12;;;;;;;1.75;0.90;;;22.50;71.60;;;;;;4965340;28;95965;-54
2021/12/02 00:03:44;;;;;;;0.82;0.82;;;22.50;71.40;;;;;;4971528;28;96407;-58
2021/12/02 00:06:18;;;;;;;1.20;1.20;;;22.60;71.40;;;;;;4976363;28;95623;-57
2021/12/02 00:08:51;;;;;;;1.27;1.10;;;22.70;71.20;;;;;;4974021;28;95809;-52
2021/12/02 00:11:21;;;;;;;0.88;0.75;;;22.80;71.10;;;;;;4969272;28;95328;-50
2021/12/02 00:22:00;;;;;;;0.98;0.98;;;23.20;70.60;;;;;;4974492;28;95807;-50
2021/12/02 00:24:35;;;;;;;3.78;0.98;;;23.30;70.40;;;;;;4972337;28;96748;-46
2021/12/02 00:27:10;;;;;;;3.35;1.10;;;23.40;70.30;;;;;;4979578;28;95799;-45
2021/12/02 00:29:46;;;;;;;0.68;0.68;;;23.50;70.10;;;;;;4962388;28;95849;-59
2021/12/02 00:32:18;;;;;;;1.00;0.85;;;23.60;70.00;;;;;;4967508;28;95392;-55
2021/12/02 00:34:49;;;;;;;1.98;1.00;;;23.70;69.80;;;;;;4972856;28;97018;-44
2021/12/02 00:37:21;;;;;;;0.80;0.80;;;23.70;69.70;;;;;;4980959;28;96631;-45
2021/12/02 00:39:55;;;;;;;1.02;0.70;;;23.80;69.60;;;;;;4982095;28;95941;-44
2021/12/02 00:42:27;;;;;;;0.65;0.65;;;23.90;69.50;;;;;;4967483;28;97179;-45
2021/12/02 00:44:58;;;;;;;0.90;0.80;;;24.00;69.50;;;;;;4966749;28;96038;-47
2021/12/02 00:47:31;;;;;;;1.30;0.90;;;24.00;69.30;;;;;;4974943;28;96046;-44
2021/12/02 00:50:05;;;;;;;2.28;0.93;;;24.10;69.30;;;;;;4968354;28;95887;-47
2021/12/02 00:52:37;;;;;;;0.80;0.80;;;24.10;69.20;;;;;;4971656;28;95877;-52
2021/12/02 00:55:10;;;;;;;0.80;0.80;;;24.20;69.10;;;;;;4965806;28;96018;-46
2021/12/02 00:57:41;;;;;;;0.75;0.75;;;24.30;69.10;;;;;;4975904;28;95896;-49
2021/12/02 01:00:12;;;;;;;1.05;0.75;;;24.40;69.00;;;;;;4967597;28;95782;-50
2021/12/02 01:02:44;;;;;;;0.70;0.70;;;24.40;68.90;;;;;;4975514;28;95741;-49
2021/12/02 01:05:17;;;;;;;1.75;0.80;;;24.50;68.90;;;;;;4966678;28;96758;-54
2021/12/02 01:07:49;;;;;;;1.85;0.70;;;24.60;68.80;;;;;;4968073;28;96126;-39
2021/12/02 01:10:20;;;;;;;0.50;0.50;;;24.60;68.70;;;;;;4966931;28;95896;-41
2021/12/02 01:12:51;;;;;;;3.22;0.88;;;24.80;69.20;;;;;;4980070;28;96053;-40
2021/12/02 01:15:25;;;;;;;;;;;24.90;69.10;;;;;;4978183;28;96209;-40
2021/12/02 01:17:57;;;;;;;0.57;0.57;;;25.00;68.90;;;;;;4996725;28;95607;-41
2021/12/02 01:20:29;;;;;;;0.88;0.70;;;25.10;68.70;;;;;;4970876;28;95712;-41
2021/12/02 01:23:01;;;;;;;0.75;0.75;;;25.20;68.60;;;;;;4973257;28;95906;-41
2021/12/02 01:25:31;;;;;;;0.80;0.77;;;25.30;68.50;;;;;;4974815;28;96563;-39
2021/12/02 01:28:02;;;;;;;0.67;0.40;;;25.30;68.40;;;;;;4973851;28;96170;-40
2021/12/02 01:30:34;;;;;;;1.67;0.68;;;25.40;68.30;;;;;;4973123;28;97407;-41
2021/12/02 01:33:07;;;;;;;0.70;0.70;;;25.50;67.10;;;;;;4960605;28;96419;-41
2021/12/02 01:35:38;;;;;;;0.85;0.70;;;25.50;68.20;;;;;;4978846;28;96647;-40
2021/12/02 01:38:10;;;;;;;0.50;0.50;;;25.50;68.00;;;;;;4979597;28;96023;-41
2021/12/02 01:40:41;;;;;;;0.70;0.70;;;25.60;68.00;;;;;;4977716;28;95531;-41
2021/12/02 01:43:16;;;;;;;0.68;0.68;;;25.70;68.00;;;;;;4972801;28;99460;-40
2021/12/02 01:45:48;;;;;;;0.70;0.70;;;25.70;67.90;;;;;;4963675;28;98296;-42
2021/12/02 01:48:27;;;;;;;0.70;0.70;;;25.70;67.80;;;;;;4962298;28;97726;-41
2021/12/02 01:51:07;;;;;;;0.60;0.60;;;25.70;67.90;;;;;;4971782;28;95880;-39
2021/12/02 01:53:42;;;;;;;0.77;0.77;;;25.70;67.90;;;;;;4973250;28;95633;-43
2021/12/02 01:56:16;;;;;;;0.80;0.80;;;25.70;67.90;;;;;;4973143;28;95970;-42
2021/12/02 01:58:53;;;;;;;0.95;0.60;;;25.70;68.10;;;;;;4977247;28;98124;-42
2021/12/02 02:01:28;;;;;;;0.75;0.75;;;25.80;68.10;;;;;;4964676;28;95333;-43
2021/12/02 02:03:58;;;;;;;;;;;25.80;68.00;;;;;;4970939;28;95959;-41
2021/12/02 02:06:39;;;;;;;0.88;0.80;;;25.90;68.00;;;;;;4971044;28;96607;-39
2021/12/02 02:09:11;;;;;;;1.58;1.05;;;26.00;67.30;;;;;;4973338;28;95823;-39
2021/12/02 02:11:41;;;;;;;0.88;0.88;;;25.60;67.00;;;;;;4979981;28;95925;-40
2021/12/02 02:14:12;;;;;;;0.70;0.70;;;25.70;67.80;;;;;;4976404;28;95886;-41
2021/12/02 02:16:44;;;;;;;0.80;0.80;;;25.90;67.50;;;;;;4966904;28;97850;-40
2021/12/02 02:19:16;;;;;;;0.88;0.88;;;26.00;67.30;;;;;;4973873;28;96100;-41
2021/12/02 02:21:48;;;;;;;0.73;0.73;;;26.20;67.10;;;;;;4974693;28;95911;-41
2021/12/02 02:24:18;;;;;;;0.70;0.70;;;26.40;65.90;;;;;;4976364;28;95376;-41
2021/12/02 02:26:49;;;;;;;1.10;0.90;;;26.60;65.80;;;;;;4978261;28;96113;-40
2021/12/02 02:29:22;;;;;;;0.85;0.80;;;26.70;66.20;;;;;;4979484;28;96041;-53
2021/12/02 02:31:54;;;;;;;0.60;0.60;;;26.90;65.00;;;;;;4971163;28;98750;-41
2021/12/02 02:34:25;;;;;;;0.50;0.50;;;27.10;64.70;;;;;;4972320;28;95635;-40
2021/12/02 02:37:00;;;;;;;0.57;0.57;;;27.20;65.30;;;;;;4977027;28;96248;-40
2021/12/02 02:39:33;;;;;;;1.05;0.73;;;27.30;65.10;;;;;;4969445;28;95771;-41
2021/12/02 02:42:07;;;;;;;0.90;0.77;;;27.50;64.90;;;;;;4972439;28;96094;-40
2021/12/02 02:44:38;;;;;;;0.60;0.60;;;27.60;64.70;;;;;;4972058;28;95383;-42
2021/12/02 02:47:10;;;;;;;1.58;0.68;;;27.60;64.60;;;;;;4976130;28;98243;-40
2021/12/02 02:49:41;;;;;;;1.50;0.90;;;27.70;64.20;;;;;;4972608;28;96029;-40
2021/12/02 02:52:11;;;;;;;0.60;0.60;;;27.40;62.30;;;;;;4972561;28;95928;-39
2021/12/02 02:54:42;;;;;;;0.88;0.77;;;27.10;62.70;;;;;;4972963;28;95780;-40
2021/12/02 02:57:17;;;;;;;0.80;0.70;;;26.80;63.20;;;;;;4970745;28;96273;-39
2021/12/02 03:02:33;;;;;;;0.73;0.73;;;26.50;63.60;;;;;;4967965;28;95737;-39
2021/12/02 03:07:43;;;;;;;0.80;0.80;;;26.30;64.00;;;;;;4969795;28;96276;-39
2021/12/02 03:13:10;;;;;;;0.88;0.88;;;26.20;64.20;;;;;;4974312;28;95330;-39
2021/12/02 03:18:33;;;;;;;0.90;0.90;;;26.10;64.40;;;;;;4971878;28;96153;-39
2021/12/02 03:21:21;;;;;;;0.70;0.70;;;26.10;64.40;;;;;;4971344;28;95892;-39
2021/12/02 03:24:02;;;;;;;1.00;0.60;;;26.00;64.10;;;;;;4969646;28;95738;-39
2021/12/02 03:26:33;;;;;;;1.17;0.90;;;26.00;60.70;;;;;;4971521;28;96094;-39
2021/12/02 03:29:05;;;;;;;6.43;0.90;;;25.90;60.10;;;;;;4983301;28;96174;-38
2021/12/02 03:31:38;;;;;;;0.80;0.80;;;25.90;59.30;;;;;;4965529;28;98477;-41
2021/12/02 03:34:10;;;;;;;0.88;0.88;;;25.80;58.60;;;;;;4972665;28;95667;-39
2021/12/02 03:36:41;;;;;;;1.20;0.90;;;25.80;58.70;;;;;;4988084;28;95657;-39
2021/12/02 03:39:13;;;;;;;1.00;0.88;;;25.80;58.30;;;;;;4970206;28;96599;-39
2021/12/02 03:41:45;;;;;;;0.80;0.80;;;25.70;57.90;;;;;;4971315;28;95789;-38
2021/12/02 03:44:15;;;;;;;0.93;0.93;;;25.70;57.50;;;;;;4975100;28;96028;-39
2021/12/02 03:46:45;;;;;;;3.77;1.00;;;25.70;57.10;;;;;;4965808;28;95760;-38
2021/12/02 03:49:17;;;;;;;0.95;0.95;;;25.70;57.10;;;;;;4960937;28;96254;-38
2021/12/02 03:51:46;;;;;;;;;;;25.60;57.20;;;;;;4979254;28;95794;-39
2021/12/02 03:54:19;;;;;;;1.13;0.80;;;25.70;57.20;;;;;;4981071;28;95982;-39
2021/12/02 03:56:48;;;;;;;1.15;0.90;;;25.70;56.90;;;;;;4974000;28;95421;-39
2021/12/02 03:59:19;;;;;;;1.25;0.95;;;25.70;56.70;;;;;;4972901;28;96874;-39
2021/12/02 04:01:52;;;;;;;0.80;0.80;;;25.60;56.20;;;;;;4966466;28;96498;-39
2021/12/02 04:04:23;;;;;;;1.17;1.02;;;25.70;56.00;;;;;;4981701;28;95850;-39
2021/12/02 04:06:54;;;;;;;0.70;0.70;;;25.70;56.10;;;;;;4975227;28;95606;-39
2021/12/02 04:09:36;;;;;;;0.95;0.80;;;25.80;55.30;;;;;;4972418;28;96334;-39
2021/12/02 04:12:27;;;;;;;1.02;1.02;;;25.80;55.40;;;;;;4973210;28;96550;-40
2021/12/02 04:15:11;;;;;;;0.70;0.70;;;25.90;55.30;;;;;;4973455;28;95907;-38
2021/12/02 04:17:44;;;;;;;3.35;0.98;;;25.80;54.50;;;;;;4968865;28;96096;-39
2021/12/02 04:20:21;;;;;;;1.40;0.77;;;25.90;55.20;;;;;;4970659;28;96649;-39
2021/12/02 04:22:56;;;;;;;0.93;0.88;;;25.80;55.60;;;;;;4968228;28;95883;-39
2021/12/02 04:25:27;;;;;;;1.45;1.00;;;25.70;54.80;;;;;;4972839;28;96032;-39
2021/12/02 04:27:58;;;;;;;1.20;1.00;;;25.60;54.70;;;;;;4981837;28;95285;-39
2021/12/02 04:30:30;;;;;;;0.90;0.90;;;25.60;54.90;;;;;;4974240;28;96112;-39
2021/12/02 04:33:01;;;;;;;2.70;0.98;;;25.50;54.70;;;;;;4970006;28;95822;-39
2021/12/02 04:35:31;;;;;;;;;;;25.50;54.60;;;;;;4973252;28;97874;-39
2021/12/02 04:38:03;;;;;;;1.05;0.90;;;25.50;54.40;;;;;;4968274;28;95813;-39
2021/12/02 04:40:36;;;;;;;1.33;0.95;;;25.50;54.20;;;;;;4970510;28;96749;-39
2021/12/02 04:43:07;;;;;;;1.42;0.88;;;25.40;53.90;;;;;;4967859;28;96034;-39
2021/12/02 04:45:38;;;;;;;1.45;0.80;;;25.40;53.90;;;;;;4948583;28;97511;-38
2021/12/02 04:48:10;;;;;;;1.05;0.80;;;25.40;53.70;;;;;;4973085;28;95868;-39
2021/12/02 04:50:42;;;;;;;0.70;0.70;;;25.40;53.60;;;;;;4973940;28;97028;-39
2021/12/02 04:53:14;;;;;;;2.45;1.20;;;25.40;53.60;;;;;;4977357;28;95649;-39
2021/12/02 04:55:45;;;;;;;0.93;0.88;;;25.40;54.00;;;;;;4966774;28;95857;-39
2021/12/02 04:58:14;;;;;;;2.47;1.15;;;25.50;53.80;;;;;;4976596;28;95933;-39
2021/12/02 05:00:44;;;;;;;0.70;0.70;;;25.60;53.60;;;;;;4964820;28;96056;-38
2021/12/02 05:03:14;;;;;;;0.90;0.90;;;25.60;53.50;;;;;;4977400;28;95571;-39
2021/12/02 05:05:47;;;;;;;0.98;0.90;;;25.70;53.30;;;;;;4981901;28;95803;-40
2021/12/02 05:08:18;;;;;;;0.80;0.80;;;25.70;53.10;;;;;;4981169;28;95801;-39
2021/12/02 05:10:47;;;;;;;;;;;25.80;52.70;;;;;;4981061;28;97048;-38
2021/12/02 05:13:17;;;;;;;2.17;0.82;;;25.80;52.20;;;;;;4977416;28;98261;-39
2021/12/02 05:15:48;;;;;;;0.98;0.90;;;25.80;52.30;;;;;;4974201;28;95544;-40
2021/12/02 05:18:20;;;;;;;0.93;0.70;;;25.80;51.80;;;;;;4981230;28;95300;-40
2021/12/02 05:20:51;;;;;;;1.20;1.15;;;25.90;52.10;;;;;;4981638;28;96398;-39
2021/12/02 05:23:22;;;;;;;2.17;1.00;;;25.80;51.70;;;;;;4981251;28;96546;-38
2021/12/02 05:25:53;;;;;;;1.65;0.90;;;25.80;51.70;;;;;;4980993;28;95988;-38
2021/12/02 05:28:24;;;;;;;0.73;0.73;;;25.80;51.70;;;;;;4979021;28;95920;-38
2021/12/02 05:30:55;;;;;;;1.08;0.98;;;25.80;47.20;;;;;;4970654;28;96558;-39
2021/12/02 05:33:26;;;;;;;1.10;1.00;;;25.70;51.30;;;;;;4980434;28;96603;-39
2021/12/02 05:35:57;;;;;;;0.90;0.70;;;25.70;50.90;;;;;;4971948;28;95614;-38
2021/12/02 05:38:30;;;;;;;1.00;1.00;;;25.70;51.00;;;;;;4984618;28;95670;-38
2021/12/02 05:41:03;;;;;;;0.95;0.95;;;25.70;50.70;;;;;;4955470;28;97342;-39
2021/12/02 05:43:35;;;;;;;0.70;0.70;;;25.70;50.40;;;;;;4976786;28;95963;-38
2021/12/02 05:46:06;;;;;;;0.85;0.85;;;25.80;50.10;;;;;;4968212;28;95318;-39
2021/12/02 05:48:40;;;;;;;1.05;0.95;;;25.70;50.20;;;;;;4973166;28;95999;-38
2021/12/02 05:51:11;;;;;;;0.80;0.80;;;25.70;50.50;;;;;;4984083;28;96123;-39
2021/12/02 05:53:43;;;;;;;0.90;0.90;;;25.80;50.90;;;;;;4994984;28;96349;-38
2021/12/02 05:56:14;;;;;;;2.70;0.90;;;25.80;50.50;;;;;;4981133;28;95922;-39
2021/12/02 05:58:44;;;;;;;2.90;1.00;;;25.80;50.80;;;;;;4980905;28;95968;-39
2021/12/02 06:01:14;;;;;;;2.25;0.90;;;25.90;50.60;;;;;;4971061;28;96621;-39
2021/12/02 06:03:44;;;;;;;0.70;0.70;;;25.90;50.20;;;;;;4974377;28;96529;-39
2021/12/02 06:06:17;;;;;;;0.75;0.75;;;25.80;50.10;;;;;;4980638;28;96509;-39
2021/12/02 06:08:48;;;;;;;0.77;0.77;;;25.70;49.60;;;;;;4959168;28;95891;-38
2021/12/02 06:11:18;;;;;;;3.08;1.10;;;25.70;50.00;;;;;;4978554;28;96167;-39
2021/12/02 06:13:49;;;;;;;1.73;1.02;;;25.70;49.70;;;;;;4980009;28;96533;-39
2021/12/02 06:20:28;;;;;;;2.63;1.48;;;25.60;49.90;;;;;;4998063;27;96832;-65
2021/12/02 22:50:22;;;;;;;3.00;0.60;;;16.80;76.50;;;;;;5002451;27;95801;-56
2021/12/02 22:52:57;;;;;;;1.05;0.60;;;16.60;77.00;;;;;;5013523;27;95814;-58
2021/12/02 22:55:29;;;;;;;3.38;0.63;;;16.60;76.90;;;;;;5014059;27;95763;-58
2021/12/02 22:58:02;;;;;;;1.98;1.27;;;16.60;76.90;;;;;;5002693;27;95968;-57
2021/12/02 23:16:07;;;;;;;2.60;0.70;;;16.90;76.50;;;;;;3242496;26;98294;-38
2021/12/02 23:18:39;;;;;;;1.55;0.63;;;17.00;76.40;;;;;;4969955;28;95813;-38
2021/12/02 23:21:11;;;;;;;2.47;0.60;;;17.10;76.20;;;;;;4936336;28;96178;-39
2021/12/02 23:23:44;;;;;;;2.78;1.05;;;17.20;76.00;;;;;;4930720;28;95771;-38
2021/12/02 23:26:19;;;;;;;1.83;0.73;;;17.20;75.80;;;;;;4944079;28;95760;-44
2021/12/02 23:28:54;;;;;;;3.22;0.60;;;17.40;75.60;;;;;;4926811;28;95883;-43
2021/12/02 23:31:30;;;;;;;2.15;0.40;;;17.40;75.40;;;;;;4936309;28;96678;-47
2021/12/02 23:34:02;;;;;;;1.35;0.40;;;17.50;75.50;;;;;;4939198;28;95783;-52
2021/12/02 23:39:39;;;;;;;1.52;0.50;;;17.70;75.40;;;;;;4949729;28;96986;-49
2021/12/02 23:42:19;;;;;;;1.63;0.47;;;17.90;75.40;;;;;;4948982;28;98815;-50
2021/12/02 23:44:53;;;;;;;1.27;0.57;;;18.10;75.20;;;;;;4950807;28;96378;-51
2021/12/02 23:47:26;;;;;;;1.48;0.40;;;18.20;75.00;;;;;;4945814;28;95950;-48
2021/12/02 23:50:01;;;;;;;1.95;0.50;;;18.30;74.90;;;;;;4952065;28;95942;-54
2021/12/02 23:52:34;;;;;;;0.60;0.28;;;18.40;74.70;;;;;;4950601;28;96436;-55
2021/12/02 23:55:08;;;;;;;3.58;0.63;;;18.50;74.70;;;;;;4950840;28;96447;-55
2021/12/02 23:57:43;;;;;;;1.42;0.57;;;18.60;74.50;;;;;;4950481;28;95821;-51
